createdAt,value
2022-12-02T00:02:28.362Z,7.60
2022-12-02T00:05:04.461Z,7.50
2022-12-02T00:07:34.221Z,7.50
2022-12-02T00:10:01.584Z,7.50
2022-12-02T00:12:32.144Z,7.60
2022-12-02T00:15:28.847Z,7.70
2022-12-02T00:17:56.224Z,7.80
2022-12-02T00:20:23.919Z,7.80
2022-12-02T00:22:51.282Z,7.80
2022-12-02T00:25:19.342Z,7.80
2022-12-02T00:27:46.674Z,7.70
2022-12-02T00:30:14.651Z,7.60
2022-12-02T00:32:42.030Z,7.50
2022-12-02T00:35:10.650Z,7.40
2022-12-02T00:37:37.983Z,7.30
2022-12-02T00:40:07.425Z,7.40
2022-12-02T00:42:35.521Z,7.50
2022-12-02T00:45:24.052Z,7.60
2022-12-02T00:47:51.410Z,7.50
2022-12-02T00:50:18.707Z,7.60
2022-12-02T00:52:47.105Z,7.70
2022-12-02T00:55:14.547Z,7.80
2022-12-02T00:57:42.623Z,7.60
2022-12-02T01:00:11.330Z,7.50
2022-12-02T01:02:38.794Z,7.50
2022-12-02T01:05:07.444Z,7.60
2022-12-02T01:07:35.937Z,7.60
2022-12-02T01:10:04.499Z,7.70
2022-12-02T01:12:32.645Z,7.80
2022-12-02T01:15:00.749Z,7.80
2022-12-02T01:17:28.033Z,7.80
2022-12-02T01:19:55.413Z,7.50
2022-12-02T01:22:22.871Z,7.50
2022-12-02T01:24:51.608Z,7.20
2022-12-02T01:27:18.940Z,7.00
2022-12-02T01:29:46.253Z,7.00
2022-12-02T01:32:13.665Z,7.20
2022-12-02T01:34:42.515Z,7.30
2022-12-02T01:37:10.104Z,7.40
2022-12-02T01:39:37.592Z,7.20
2022-12-02T01:42:08.667Z,7.20
2022-12-02T01:44:38.591Z,7.20
2022-12-02T01:47:06.925Z,7.30
2022-12-02T01:49:35.028Z,7.40
2022-12-02T01:52:03.612Z,7.50
2022-12-02T01:54:31.807Z,7.50
2022-12-02T01:56:59.644Z,7.60
2022-12-02T01:59:27.373Z,7.60
2022-12-02T02:01:55.572Z,7.50
2022-12-02T02:04:24.030Z,7.60
2022-12-02T02:06:51.601Z,7.60
2022-12-02T02:09:19.196Z,7.60
2022-12-02T02:11:46.662Z,7.60
2022-12-02T02:14:14.359Z,7.60
2022-12-02T02:16:43.238Z,7.50
2022-12-02T02:19:13.637Z,7.50
2022-12-02T02:21:47.640Z,7.50
2022-12-02T02:24:14.978Z,7.50
2022-12-02T02:26:42.350Z,7.40
2022-12-02T02:29:09.739Z,7.50
2022-12-02T02:31:38.918Z,7.50
2022-12-02T02:34:07.175Z,7.50
2022-12-02T02:36:36.121Z,7.50
2022-12-02T02:39:06.050Z,7.50
2022-12-02T02:41:36.176Z,7.60
2022-12-02T02:44:05.862Z,7.40
2022-12-02T02:46:33.999Z,6.90
2022-12-02T02:49:02.597Z,6.80
2022-12-02T02:51:30.778Z,6.90
2022-12-02T02:53:59.035Z,7.00
2022-12-02T02:56:26.527Z,7.10
2022-12-02T02:58:54.364Z,7.20
2022-12-02T03:01:29.479Z,7.20
2022-12-02T03:04:01.584Z,7.20
2022-12-02T03:06:32.087Z,7.20
2022-12-02T03:09:02.085Z,7.10
2022-12-02T03:11:30.330Z,6.90
2022-12-02T03:13:58.106Z,6.60
2022-12-02T03:16:26.621Z,6.60
2022-12-02T03:18:56.059Z,6.70
2022-12-02T03:21:24.201Z,6.90
2022-12-02T03:23:54.974Z,7.00
2022-12-02T03:26:22.135Z,7.00
2022-12-02T03:28:51.503Z,7.20
2022-12-02T03:31:18.903Z,7.20
2022-12-02T03:33:46.829Z,7.20
2022-12-02T03:36:14.467Z,7.30
2022-12-02T03:38:42.747Z,7.40
2022-12-02T03:41:11.546Z,7.20
2022-12-02T03:43:39.593Z,7.00
2022-12-02T03:46:09.326Z,7.00
2022-12-02T03:48:39.294Z,7.20
2022-12-02T03:51:08.758Z,7.20
2022-12-02T03:53:37.288Z,7.40
2022-12-02T03:56:06.925Z,7.20
2022-12-02T03:58:38.392Z,7.00
2022-12-02T04:01:06.414Z,7.00
2022-12-02T04:03:34.913Z,7.00
2022-12-02T04:06:02.215Z,7.00
2022-12-02T04:08:29.768Z,6.80
2022-12-02T04:10:58.489Z,6.80
2022-12-02T04:13:27.571Z,6.70
2022-12-02T04:15:56.567Z,6.80
2022-12-02T04:18:24.229Z,6.70
2022-12-02T04:20:52.447Z,6.70
2022-12-02T04:23:19.849Z,6.80
2022-12-02T04:25:47.357Z,6.90
2022-12-02T04:28:14.922Z,6.90
2022-12-02T04:30:45.768Z,6.90
2022-12-02T04:33:15.548Z,6.60
2022-12-02T04:35:42.926Z,6.40
2022-12-02T04:38:12.400Z,6.30
2022-12-02T04:40:40.735Z,6.30
2022-12-02T04:43:08.377Z,6.40
2022-12-02T04:45:41.668Z,6.40
2022-12-02T04:48:10.762Z,6.60
2022-12-02T04:50:38.237Z,6.40
2022-12-02T04:53:06.811Z,6.30
2022-12-02T04:55:34.245Z,6.30
2022-12-02T04:58:02.172Z,6.20
2022-12-02T05:00:29.689Z,6.20
2022-12-02T05:02:57.838Z,6.30
2022-12-02T05:05:26.015Z,6.30
2022-12-02T05:07:53.626Z,5.80
2022-12-02T05:10:21.143Z,5.60
2022-12-02T05:12:48.440Z,5.60
2022-12-02T05:15:16.080Z,5.70
2022-12-02T05:17:43.422Z,5.40
2022-12-02T05:20:11.656Z,5.20
2022-12-02T05:22:39.053Z,5.30
2022-12-02T05:25:09.219Z,5.50
2022-12-02T05:27:38.681Z,5.60
2022-12-02T05:30:08.870Z,5.80
2022-12-02T05:32:36.278Z,6.00
2022-12-02T05:35:06.751Z,6.10
2022-12-02T05:37:34.278Z,6.10
2022-12-02T05:40:01.902Z,6.00
2022-12-02T05:42:29.597Z,5.70
2022-12-02T05:45:02.051Z,5.60
2022-12-02T05:47:31.264Z,5.60
2022-12-02T05:50:00.911Z,5.60
2022-12-02T05:52:29.676Z,5.30
2022-12-02T05:55:01.618Z,5.10
2022-12-02T05:57:31.404Z,5.00
2022-12-02T06:00:25.029Z,5.10
2022-12-02T06:03:00.823Z,5.30
2022-12-02T06:05:44.163Z,5.60
2022-12-02T06:08:20.818Z,5.80
2022-12-02T06:10:51.839Z,5.60
2022-12-02T06:13:30.355Z,5.40
2022-12-02T06:16:03.139Z,5.10
2022-12-02T06:18:35.917Z,5.00
2022-12-02T06:21:12.171Z,5.30
2022-12-02T06:23:47.505Z,5.50
2022-12-02T06:26:20.898Z,5.70
2022-12-02T06:28:59.944Z,5.60
2022-12-02T06:32:22.106Z,5.30
2022-12-02T06:34:52.754Z,5.00
2022-12-02T06:37:24.429Z,5.10
2022-12-02T06:40:26.886Z,5.30
2022-12-02T06:42:43.793Z,5.50
2022-12-02T06:45:15.630Z,5.60
2022-12-02T06:47:43.195Z,5.70
2022-12-02T06:50:19.821Z,5.70
2022-12-02T06:52:47.379Z,5.80
2022-12-02T06:55:33.560Z,6.10
2022-12-02T06:58:20.934Z,6.10
2022-12-02T07:00:54.285Z,6.10
2022-12-02T07:03:32.922Z,6.10
2022-12-02T07:06:14.847Z,6.30
2022-12-02T07:08:42.680Z,6.20
2022-12-02T07:11:50.703Z,6.10
2022-12-02T07:14:37.322Z,6.30
2022-12-02T07:17:22.411Z,6.50
2022-12-02T07:20:02.249Z,6.60
2022-12-02T07:22:40.931Z,6.80
2022-12-02T07:25:08.622Z,7.00
2022-12-02T07:27:42.321Z,7.00
2022-12-02T07:30:43.729Z,7.00
2022-12-02T07:33:12.042Z,7.20
2022-12-02T07:35:39.499Z,7.10
2022-12-02T07:38:06.872Z,7.00
2022-12-02T07:40:34.601Z,6.80
2022-12-02T07:43:02.116Z,6.90
2022-12-02T07:45:29.853Z,6.90
2022-12-02T07:47:57.616Z,7.20
2022-12-02T07:50:25.743Z,7.40
2022-12-02T07:52:53.453Z,7.80
2022-12-02T07:55:26.114Z,8.00
2022-12-02T07:57:57.026Z,8.20
2022-12-02T08:00:25.296Z,8.40
2022-12-02T08:02:55.949Z,8.60
2022-12-02T08:05:26.795Z,8.60
2022-12-02T08:07:55.185Z,8.60
2022-12-02T08:10:23.338Z,8.60
2022-12-02T08:12:50.772Z,8.60
2022-12-02T08:15:18.799Z,8.80
2022-12-02T08:17:46.090Z,8.80
2022-12-02T08:20:14.115Z,8.80
2022-12-02T08:22:41.353Z,9.00
2022-12-02T08:25:09.090Z,9.10
2022-12-02T08:27:44.985Z,9.20
2022-12-02T08:30:16.220Z,9.20
2022-12-02T08:32:43.867Z,9.20
2022-12-02T08:35:13.123Z,9.30
2022-12-02T08:37:40.795Z,9.40
2022-12-02T08:40:08.902Z,9.40
2022-12-02T08:42:37.331Z,9.40
2022-12-02T08:45:06.693Z,9.40
2022-12-02T08:47:34.050Z,9.30
2022-12-02T08:50:01.369Z,9.20
2022-12-02T08:52:29.243Z,9.10
2022-12-02T08:54:58.744Z,9.20
2022-12-02T08:57:26.465Z,9.20
2022-12-02T08:59:53.703Z,9.00
2022-12-02T09:02:21.071Z,9.00
2022-12-02T09:04:48.688Z,9.10
2022-12-02T09:07:17.129Z,9.20
2022-12-02T09:09:44.508Z,9.00
2022-12-02T09:12:12.081Z,9.10
2022-12-02T09:14:39.339Z,9.40
2022-12-02T09:17:07.195Z,9.50
2022-12-02T09:19:34.465Z,9.70
2022-12-02T09:22:01.879Z,9.90
2022-12-02T09:24:29.619Z,10.20
2022-12-02T09:26:57.813Z,10.60
2022-12-02T09:29:25.382Z,11.50
2022-12-02T09:31:53.196Z,11.80
2022-12-02T09:34:20.546Z,11.50
2022-12-02T09:36:49.139Z,11.40
2022-12-02T09:39:16.487Z,11.30
2022-12-02T09:41:44.314Z,11.30
2022-12-02T09:44:11.911Z,11.20
2022-12-02T09:46:39.714Z,11.30
2022-12-02T09:49:07.332Z,11.50
2022-12-02T09:51:34.890Z,11.90
2022-12-02T09:54:03.612Z,12.10
2022-12-02T09:56:31.118Z,12.10
2022-12-02T09:58:59.055Z,12.00
2022-12-02T10:01:28.067Z,11.90
2022-12-02T10:03:56.159Z,11.90
2022-12-02T10:06:29.011Z,12.00
2022-12-02T10:08:58.178Z,12.30
2022-12-02T10:11:29.127Z,12.80
2022-12-02T10:13:58.057Z,13.10
2022-12-02T10:16:29.647Z,13.30
2022-12-02T10:19:04.007Z,13.30
2022-12-02T10:21:31.467Z,13.10
2022-12-02T10:24:02.778Z,12.90
2022-12-02T10:26:51.689Z,12.50
2022-12-02T10:29:32.423Z,12.50
2022-12-02T10:32:02.969Z,12.20
2022-12-02T10:34:33.321Z,11.90
2022-12-02T10:37:32.191Z,11.70
2022-12-02T10:40:21.755Z,11.70
2022-12-02T10:43:08.911Z,11.70
2022-12-02T10:45:42.164Z,11.90
2022-12-02T10:48:18.412Z,11.90
2022-12-02T10:50:47.133Z,12.00
2022-12-02T10:53:16.590Z,12.10
2022-12-02T10:55:46.053Z,12.30
2022-12-02T10:58:33.791Z,12.50
2022-12-02T11:01:02.675Z,12.50
2022-12-02T11:03:30.026Z,12.70
2022-12-02T11:05:59.553Z,12.60
2022-12-02T11:08:29.850Z,12.50
2022-12-02T11:11:18.322Z,12.50
2022-12-02T11:13:56.098Z,12.30
2022-12-02T11:16:28.537Z,12.20
2022-12-02T11:19:26.370Z,12.10
2022-12-02T11:21:59.039Z,12.10
2022-12-02T11:24:28.316Z,12.00
2022-12-02T11:27:04.351Z,12.00
2022-12-02T11:29:42.020Z,12.00
2022-12-02T11:32:23.206Z,12.20
2022-12-02T11:37:46.602Z,12.40
2022-12-02T11:40:16.635Z,12.30
2022-12-02T11:42:45.018Z,12.40
2022-12-02T11:45:18.698Z,12.50
2022-12-02T11:48:15.505Z,12.50
2022-12-02T11:50:43.893Z,12.50
2022-12-02T11:53:20.270Z,12.50
2022-12-02T11:55:49.962Z,12.50
2022-12-02T11:58:30.274Z,12.50
2022-12-02T12:01:15.285Z,12.50
2022-12-02T12:03:47.615Z,12.50
2022-12-02T12:06:15.923Z,12.50
2022-12-02T12:08:48.512Z,12.40
2022-12-02T12:11:15.800Z,12.20
2022-12-02T12:14:14.317Z,12.20
2022-12-02T12:16:48.937Z,12.20
2022-12-02T12:19:16.497Z,12.30
2022-12-02T12:21:55.768Z,12.40
2022-12-02T12:24:23.730Z,12.40
2022-12-02T12:26:57.167Z,12.30
2022-12-02T12:29:31.463Z,12.30
2022-12-02T12:31:59.693Z,12.10
2022-12-02T12:34:27.213Z,12.00
2022-12-02T12:36:54.594Z,12.00
2022-12-02T12:39:21.949Z,12.00
2022-12-02T12:42:05.196Z,12.10
2022-12-02T12:44:33.231Z,12.00
2022-12-02T12:47:04.594Z,12.10
2022-12-02T12:49:34.355Z,12.00
2022-12-02T12:52:02.900Z,12.00
2022-12-02T12:54:30.427Z,12.00
2022-12-02T12:56:58.033Z,12.00
2022-12-02T12:59:25.412Z,12.00
2022-12-02T13:01:53.035Z,12.00
2022-12-02T13:04:20.495Z,12.00
2022-12-02T13:06:47.869Z,12.00
2022-12-02T13:09:15.906Z,12.00
2022-12-02T13:11:54.811Z,12.10
2022-12-02T13:14:22.373Z,12.10
2022-12-02T13:16:52.560Z,12.10
2022-12-02T13:19:19.850Z,12.00
2022-12-02T13:21:47.823Z,12.00
2022-12-02T13:24:16.273Z,11.90
2022-12-02T13:26:43.673Z,11.80
2022-12-02T13:29:11.397Z,11.70
2022-12-02T13:31:38.887Z,11.70
2022-12-02T13:34:06.545Z,11.70
2022-12-02T13:36:34.563Z,11.60
2022-12-02T13:39:06.275Z,11.60
2022-12-02T13:41:34.962Z,11.50
2022-12-02T13:44:04.082Z,11.50
2022-12-02T13:46:33.555Z,11.50
2022-12-02T13:49:01.013Z,11.50
2022-12-02T13:51:28.462Z,11.50
2022-12-02T13:53:59.052Z,11.50
2022-12-02T13:56:27.788Z,11.50
2022-12-02T13:58:55.137Z,11.50
2022-12-02T14:01:22.914Z,11.40
2022-12-02T14:03:50.551Z,11.40
2022-12-02T14:06:17.986Z,11.30
2022-12-02T14:08:45.296Z,11.30
2022-12-02T14:11:12.644Z,11.20
2022-12-02T14:13:40.355Z,11.00
2022-12-02T14:16:09.229Z,11.00
2022-12-02T14:18:37.684Z,10.90
2022-12-02T14:21:08.763Z,11.00
2022-12-02T14:23:36.282Z,11.00
2022-12-02T14:26:04.585Z,11.10
2022-12-02T14:28:32.137Z,11.00
2022-12-02T14:31:01.310Z,11.00
2022-12-02T14:34:02.704Z,11.00
2022-12-02T14:36:17.502Z,10.90
2022-12-02T14:38:46.275Z,10.80
2022-12-02T14:41:15.603Z,10.80
2022-12-02T14:43:42.973Z,10.70
2022-12-02T14:46:10.254Z,10.70
2022-12-02T14:48:37.549Z,10.70
2022-12-02T14:51:05.379Z,10.70
2022-12-02T14:53:33.229Z,10.60
2022-12-02T14:56:01.368Z,10.40
2022-12-02T14:58:28.988Z,10.30
2022-12-02T15:01:01.584Z,10.40
2022-12-02T15:03:30.168Z,10.40
2022-12-02T15:05:57.920Z,10.40
2022-12-02T15:08:25.625Z,10.40
2022-12-02T15:10:52.933Z,10.20
2022-12-02T15:13:20.272Z,10.10
2022-12-02T15:15:55.792Z,10.00
2022-12-02T15:18:27.554Z,10.00
2022-12-02T15:20:56.367Z,10.00
2022-12-02T15:23:25.977Z,10.10
2022-12-02T15:25:54.974Z,10.10
2022-12-02T15:28:23.745Z,10.10
2022-12-02T15:30:55.002Z,10.20
2022-12-02T15:33:25.111Z,10.20
2022-12-02T15:35:52.772Z,10.30
2022-12-02T15:38:20.004Z,10.30
2022-12-02T15:40:47.833Z,10.40
2022-12-02T15:43:15.142Z,10.40
2022-12-02T15:45:50.396Z,10.40
2022-12-02T15:48:18.981Z,10.40
2022-12-02T15:50:50.448Z,10.40
2022-12-02T15:53:22.158Z,10.30
2022-12-02T15:55:51.363Z,10.30
2022-12-02T15:58:20.837Z,10.30
2022-12-02T16:00:50.873Z,10.30
2022-12-02T16:03:19.708Z,10.10
2022-12-02T16:05:47.141Z,10.00
2022-12-02T16:08:16.593Z,10.00
2022-12-02T16:10:44.947Z,10.00
2022-12-02T16:13:13.088Z,10.00
2022-12-02T16:15:47.776Z,9.90
2022-12-02T16:18:16.597Z,9.90
2022-12-02T16:20:46.115Z,9.90
2022-12-02T16:23:15.115Z,10.00
2022-12-02T16:25:43.667Z,10.00
2022-12-02T16:28:11.321Z,10.00
2022-12-02T16:30:45.277Z,9.90
2022-12-02T16:33:14.004Z,9.80
2022-12-02T16:35:41.173Z,9.80
2022-12-02T16:38:09.429Z,9.90
2022-12-02T16:40:38.123Z,9.90
2022-12-02T16:43:06.258Z,9.90
2022-12-02T16:45:36.043Z,9.80
2022-12-02T16:48:05.925Z,9.80
2022-12-02T16:50:34.370Z,9.70
2022-12-02T16:53:03.379Z,9.60
2022-12-02T16:55:32.639Z,9.60
2022-12-02T16:58:00.567Z,9.60
2022-12-02T17:00:27.931Z,9.60
2022-12-02T17:02:55.951Z,9.70
2022-12-02T17:05:23.995Z,9.70
2022-12-02T17:07:53.408Z,9.80
2022-12-02T17:10:21.020Z,9.80
2022-12-02T17:12:50.066Z,9.80
2022-12-02T17:15:18.378Z,9.60
2022-12-02T17:17:47.169Z,9.60
2022-12-02T17:20:15.432Z,9.50
2022-12-02T17:22:44.226Z,9.50
2022-12-02T17:25:13.579Z,9.60
2022-12-02T17:27:41.764Z,9.70
2022-12-02T17:30:10.557Z,9.70
2022-12-02T17:32:38.079Z,9.70
2022-12-02T17:35:07.544Z,9.80
2022-12-02T17:37:36.077Z,9.80
2022-12-02T17:40:04.368Z,9.90
2022-12-02T17:42:33.361Z,9.80
2022-12-02T17:45:02.529Z,9.80
2022-12-02T17:47:30.844Z,9.70
2022-12-02T17:49:58.140Z,9.70
2022-12-02T17:52:25.433Z,9.70
2022-12-02T17:54:53.611Z,9.70
2022-12-02T17:57:22.042Z,9.50
2022-12-02T17:59:49.811Z,9.40
2022-12-02T18:02:17.340Z,9.40
2022-12-02T18:04:45.006Z,9.30
2022-12-02T18:07:15.347Z,9.40
2022-12-02T18:09:43.238Z,9.40
2022-12-02T18:12:11.401Z,9.50
2022-12-02T18:14:39.018Z,9.50
2022-12-02T18:17:08.340Z,9.50
2022-12-02T18:19:37.589Z,9.50
2022-12-02T18:22:05.576Z,9.50
2022-12-02T18:24:32.828Z,9.50
2022-12-02T18:27:01.458Z,9.60
2022-12-02T18:29:29.651Z,9.60
2022-12-02T18:31:57.048Z,9.60
2022-12-02T18:34:25.016Z,9.60
2022-12-02T18:36:52.433Z,9.60
2022-12-02T18:39:19.769Z,9.70
2022-12-02T18:41:47.779Z,9.70
2022-12-02T18:44:15.061Z,9.70
2022-12-02T18:46:43.014Z,9.60
2022-12-02T18:49:10.533Z,9.40
2022-12-02T18:51:37.888Z,9.20
2022-12-02T18:54:05.605Z,9.20
2022-12-02T18:56:34.026Z,9.20
2022-12-02T18:59:02.639Z,9.20
2022-12-02T19:01:41.893Z,9.20
2022-12-02T19:04:10.879Z,9.30
2022-12-02T19:06:39.768Z,9.40
2022-12-02T19:09:07.244Z,9.40
2022-12-02T19:11:36.181Z,9.40
2022-12-02T19:14:04.030Z,9.40
2022-12-02T19:16:31.424Z,9.50
2022-12-02T19:18:58.779Z,9.50
2022-12-02T19:21:28.162Z,9.50
2022-12-02T19:23:55.695Z,9.50
2022-12-02T19:26:24.242Z,9.50
2022-12-02T19:28:52.036Z,9.50
2022-12-02T19:31:19.499Z,9.40
2022-12-02T19:33:47.026Z,9.50
2022-12-02T19:36:14.381Z,9.30
2022-12-02T19:38:42.221Z,9.20
2022-12-02T19:41:09.595Z,9.20
2022-12-02T19:43:37.272Z,9.20
2022-12-02T19:46:05.267Z,9.10
2022-12-02T19:48:34.046Z,9.20
2022-12-02T19:51:01.405Z,9.20
2022-12-02T19:53:28.797Z,9.20
2022-12-02T19:55:56.169Z,9.30
2022-12-02T19:58:23.353Z,9.40
2022-12-02T20:00:53.307Z,9.40
2022-12-02T20:03:21.104Z,9.40
2022-12-02T20:05:48.937Z,9.30
2022-12-02T20:08:16.513Z,9.20
2022-12-02T20:10:43.807Z,9.20
2022-12-02T20:13:11.154Z,9.00
2022-12-02T20:15:45.586Z,9.00
2022-12-02T20:18:13.081Z,9.10
2022-12-02T20:20:41.294Z,9.20
2022-12-02T20:23:08.745Z,9.10
2022-12-02T20:25:36.722Z,9.20
2022-12-02T20:28:04.243Z,9.40
2022-12-02T20:30:31.708Z,9.40
2022-12-02T20:32:59.018Z,9.40
2022-12-02T20:35:27.073Z,9.40
2022-12-02T20:37:54.789Z,9.30
2022-12-02T20:40:23.700Z,9.40
2022-12-02T20:42:51.268Z,9.30
2022-12-02T20:45:19.149Z,9.40
2022-12-02T20:47:46.915Z,9.40
2022-12-02T20:50:14.511Z,9.40
2022-12-02T20:52:42.090Z,9.40
2022-12-02T20:55:09.947Z,9.40
2022-12-02T20:57:37.803Z,9.40
2022-12-02T21:00:08.404Z,9.20
2022-12-02T21:02:36.508Z,9.20
2022-12-02T21:05:06.201Z,9.20
2022-12-02T21:07:34.503Z,9.20
2022-12-02T21:10:02.920Z,9.20
2022-12-02T21:12:31.075Z,9.20
2022-12-02T21:14:58.349Z,9.20
2022-12-02T21:17:26.982Z,9.20
2022-12-02T21:19:54.909Z,9.30
2022-12-02T21:22:23.008Z,9.20
2022-12-02T21:24:50.481Z,9.30
2022-12-02T21:27:18.470Z,9.30
2022-12-02T21:29:46.068Z,9.20
2022-12-02T21:32:14.250Z,9.30
2022-12-02T21:34:43.192Z,9.30
2022-12-02T21:37:12.833Z,9.40
2022-12-02T21:39:40.322Z,9.40
2022-12-02T21:42:07.804Z,9.40
2022-12-02T21:44:36.029Z,9.40
2022-12-02T21:47:04.064Z,9.40
2022-12-02T21:49:32.237Z,9.40
2022-12-02T21:52:01.921Z,9.40
2022-12-02T21:54:29.554Z,9.40
2022-12-02T21:56:57.268Z,9.20
2022-12-02T21:59:24.611Z,9.20
2022-12-02T22:01:52.285Z,9.30
2022-12-02T22:04:20.593Z,9.40
2022-12-02T22:06:47.888Z,9.40
2022-12-02T22:09:15.290Z,9.40
2022-12-02T22:11:42.595Z,9.40
2022-12-02T22:14:10.289Z,9.40
2022-12-02T22:16:37.838Z,9.40
2022-12-02T22:19:10.309Z,9.30
2022-12-02T22:21:41.878Z,9.30
2022-12-02T22:24:09.145Z,9.40
2022-12-02T22:26:37.056Z,9.40
2022-12-02T22:29:04.544Z,9.40
2022-12-02T22:31:33.012Z,9.40
2022-12-02T22:34:00.238Z,9.40
2022-12-02T22:36:28.735Z,9.40
2022-12-02T22:38:55.985Z,9.40
2022-12-02T22:41:23.597Z,9.40
2022-12-02T22:43:51.000Z,9.30
2022-12-02T22:46:19.290Z,9.20
2022-12-02T22:48:46.609Z,9.10
2022-12-02T22:51:14.726Z,9.20
2022-12-02T22:53:42.121Z,9.30
2022-12-02T22:56:09.897Z,9.40
2022-12-02T22:58:37.563Z,9.40
2022-12-02T23:01:07.365Z,9.40
2022-12-02T23:03:36.848Z,9.40
2022-12-02T23:06:06.174Z,9.40
2022-12-02T23:08:33.612Z,9.40
2022-12-02T23:11:01.519Z,9.40
2022-12-02T23:13:29.017Z,9.40
2022-12-02T23:15:58.232Z,9.30
2022-12-02T23:18:26.200Z,9.30
2022-12-02T23:20:53.520Z,9.20
2022-12-02T23:23:20.973Z,9.20
2022-12-02T23:25:48.400Z,9.20
2022-12-02T23:28:16.714Z,9.30
2022-12-02T23:30:48.667Z,9.30
2022-12-02T23:33:16.219Z,9.20
2022-12-02T23:35:43.547Z,9.20
2022-12-02T23:38:11.065Z,9.20
2022-12-02T23:40:38.425Z,9.20
2022-12-02T23:43:07.406Z,9.20
2022-12-02T23:45:41.131Z,9.30
2022-12-02T23:48:10.088Z,9.40
2022-12-02T23:50:38.779Z,9.40
2022-12-02T23:53:06.412Z,9.40
2022-12-02T23:55:34.806Z,9.40
2022-12-02T23:58:02.252Z,9.50
